Time;durP1;ratioP1;P1;durP2;ratioP2;P2;SDS_P1;SDS_P2;PMS_P1;PMS_P2;Temp;Humidity;BMP_temperature;BMP_pressure;BME280_temperature;BME280_humidity;BME280_pressure;Samples;Min_cycle;Max_cycle;Signal;HPM_P1;HPM_P2
2023/08/09 00:01:09;;;;;;;3.35;1.00;;;;;;;13.92;100.00;100956.56;4972964;28;20521;-80
2023/08/09 00:03:36;;;;;;;1.67;1.00;;;;;;;13.96;100.00;100965.66;4978084;28;20058;-81
2023/08/09 00:06:03;;;;;;;3.15;0.90;;;;;;;13.95;100.00;100964.09;4973069;28;20470;-81
2023/08/09 00:08:30;;;;;;;4.10;1.00;;;;;;;13.95;100.00;100960.50;4973998;28;20043;-83
2023/08/09 00:10:56;;;;;;;3.95;0.95;;;;;;;13.93;100.00;100960.13;4953208;28;20056;-81
2023/08/09 00:13:24;;;;;;;3.38;1.00;;;;;;;13.97;100.00;100955.25;4969521;28;20058;-81
2023/08/09 00:15:52;;;;;;;3.67;0.88;;;;;;;13.97;100.00;100952.44;4969959;28;20051;-80
2023/08/09 00:18:19;;;;;;;1.10;0.90;;;;;;;13.95;100.00;100940.94;4971681;28;20051;-80
2023/08/09 00:20:45;;;;;;;2.72;1.20;;;;;;;13.95;100.00;100952.91;4976866;28;20046;-81
2023/08/09 00:23:14;;;;;;;2.05;1.10;;;;;;;13.89;100.00;100965.81;4971730;28;20054;-80
2023/08/09 00:25:41;;;;;;;1.50;0.95;;;;;;;13.85;100.00;100970.72;4972831;28;20046;-80
2023/08/09 00:28:07;;;;;;;2.35;1.25;;;;;;;13.83;100.00;100970.34;4978676;28;20147;-80
2023/08/09 00:30:34;;;;;;;2.05;1.17;;;;;;;13.76;100.00;100983.69;4977363;28;21438;-81
2023/08/09 00:33:01;;;;;;;1.65;1.30;;;;;;;13.73;100.00;100995.72;4982652;28;20089;-81
2023/08/09 00:35:27;;;;;;;1.83;1.02;;;;;;;13.63;100.00;100997.53;4974162;28;20198;-81
2023/08/09 00:37:54;;;;;;;2.28;1.02;;;;;;;13.70;100.00;100991.78;4975187;28;20094;-82
2023/08/09 00:40:21;;;;;;;1.75;0.88;;;;;;;13.52;100.00;100991.38;4975015;28;20581;-81
2023/08/09 00:42:47;;;;;;;3.58;1.55;;;;;;;13.54;100.00;100999.34;4973334;28;20097;-79
2023/08/09 00:45:14;;;;;;;2.65;1.40;;;;;;;13.44;100.00;100986.38;4973650;28;20078;-82
2023/08/09 00:47:40;;;;;;;1.98;1.27;;;;;;;13.46;100.00;100986.72;4972044;28;20085;-82
2023/08/09 00:50:07;;;;;;;2.22;1.48;;;;;;;13.47;100.00;100994.66;4973276;28;20414;-80
2023/08/09 00:52:34;;;;;;;2.58;1.33;;;;;;;13.48;100.00;100989.88;4974571;28;20076;-81
2023/08/09 00:55:04;;;;;;;2.78;1.40;;;;;;;13.48;100.00;100992.69;4973232;28;20097;-81
2023/08/09 00:57:30;;;;;;;1.92;1.33;;;;;;;13.44;100.00;100991.97;4965121;28;20118;-80
2023/08/09 00:59:57;;;;;;;2.08;1.30;;;;;;;13.46;100.00;100995.09;4974553;28;20074;-82
2023/08/09 01:02:24;;;;;;;2.65;1.65;;;;;;;13.47;100.00;100988.31;4974348;28;20074;-78
2023/08/09 01:04:51;;;;;;;3.28;1.75;;;;;;;13.52;100.00;100998.97;4970610;28;20147;-78
2023/08/09 01:07:23;;;;;;;2.92;1.42;;;;;;;13.53;100.00;101003.34;4971204;28;20059;-80
2023/08/09 01:09:56;;;;;;;5.88;1.60;;;;;;;13.49;100.00;101011.00;4963595;28;20046;-80
2023/08/09 01:12:27;;;;;;;2.83;1.58;;;;;;;13.40;100.00;100996.81;4971606;28;20058;-79
2023/08/09 01:14:57;;;;;;;2.90;1.70;;;;;;;13.44;100.00;100995.53;4972428;28;20042;-79
2023/08/09 01:17:28;;;;;;;3.33;1.80;;;;;;;13.45;100.00;101007.50;4970399;28;20109;-79
2023/08/09 01:19:56;;;;;;;1.80;1.38;;;;;;;13.40;100.00;101011.53;4971210;28;20053;-77
2023/08/09 01:22:32;;;;;;;2.53;1.60;;;;;;;13.39;100.00;101012.78;4974539;28;20089;-81
2023/08/09 01:25:03;;;;;;;2.90;1.65;;;;;;;13.44;100.00;101017.09;4975674;28;20046;-80
2023/08/09 01:27:31;;;;;;;6.10;2.00;;;;;;;13.43;100.00;101019.09;4978929;28;20106;-80
2023/08/09 01:29:59;;;;;;;3.45;1.92;;;;;;;13.39;100.00;101006.38;4973366;28;20058;-78
2023/08/09 01:32:26;;;;;;;2.88;1.50;;;;;;;13.32;100.00;101003.75;4973081;28;20447;-82
2023/08/09 01:34:53;;;;;;;4.55;1.70;;;;;;;13.28;100.00;101011.41;4971737;28;20589;-81
2023/08/09 01:37:34;;;;;;;4.43;2.08;;;;;;;13.27;100.00;101005.03;4973124;28;20458;-78
2023/08/09 01:40:08;;;;;;;3.60;1.92;;;;;;;13.43;100.00;101035.09;4979350;28;20133;-80
2023/08/09 01:42:39;;;;;;;4.25;2.47;;;;;;;13.42;100.00;101030.66;4972955;28;20136;-81
2023/08/09 01:45:08;;;;;;;7.70;2.75;;;;;;;13.43;100.00;101046.25;4954472;28;20477;-82
2023/08/09 01:47:38;;;;;;;4.63;2.72;;;;;;;13.35;100.00;101047.56;4972677;28;20057;-81
2023/08/09 01:50:06;;;;;;;5.20;2.25;;;;;;;13.33;100.00;101055.59;4972139;28;20043;-80
2023/08/09 01:52:33;;;;;;;4.68;1.92;;;;;;;13.13;100.00;101043.63;4971760;28;20121;-81
2023/08/09 01:54:59;;;;;;;6.97;2.40;;;;;;;13.13;100.00;101055.53;4972067;28;20122;-80
2023/08/09 01:57:26;;;;;;;4.78;2.60;;;;;;;13.15;100.00;101057.91;4972347;28;20141;-81
2023/08/09 01:59:53;;;;;;;4.10;2.03;;;;;;;13.13;100.00;101065.94;4972667;28;20047;-81
2023/08/09 02:02:19;;;;;;;5.88;2.63;;;;;;;13.10;100.00;101064.00;4972115;28;20051;-78
2023/08/09 02:04:46;;;;;;;4.07;2.50;;;;;;;13.15;100.00;101066.28;4971783;28;20055;-80
2023/08/09 02:07:12;;;;;;;5.72;2.47;;;;;;;13.11;100.00;101068.38;4971892;28;20113;-80
2023/08/09 02:09:39;;;;;;;5.65;2.90;;;;;;;13.18;100.00;101068.22;4973056;28;20074;-81
2023/08/09 02:12:06;;;;;;;7.78;3.63;;;;;;;13.22;100.00;101061.38;4972552;28;20050;-80
2023/08/09 02:14:32;;;;;;;7.03;3.50;;;;;;;13.23;100.00;101051.00;4972209;28;20109;-78
2023/08/09 02:16:59;;;;;;;6.65;3.45;;;;;;;13.27;100.00;101046.13;4958087;28;20046;-80
2023/08/09 02:19:26;;;;;;;8.05;3.72;;;;;;;13.30;100.00;101045.28;4977381;28;20050;-79
2023/08/09 02:21:52;;;;;;;7.22;3.53;;;;;;;13.25;100.00;101037.38;4975609;28;20872;-79
2023/08/09 02:24:21;;;;;;;7.45;3.80;;;;;;;13.19;100.00;101055.84;4982672;28;20062;-82
2023/08/09 02:26:47;;;;;;;9.73;3.90;;;;;;;13.13;100.00;101063.16;4977035;28;20054;-81
2023/08/09 02:29:14;;;;;;;8.48;4.22;;;;;;;13.00;100.00;101059.41;4976505;28;20101;-81
2023/08/09 02:31:40;;;;;;;10.70;4.95;;;;;;;13.07;100.00;101067.66;4975407;28;20560;-79
2023/08/09 02:34:07;;;;;;;9.57;4.50;;;;;;;13.08;100.00;101077.59;4977431;28;20051;-80
2023/08/09 02:36:33;;;;;;;9.05;4.38;;;;;;;13.06;100.00;101072.44;4967355;28;20114;-80
2023/08/09 02:39:00;;;;;;;10.80;4.47;;;;;;;13.11;100.00;101073.94;4976439;28;20078;-81
2023/08/09 02:41:26;;;;;;;9.88;4.43;;;;;;;13.08;100.00;101075.59;4973925;28;20078;-80
2023/08/09 02:43:53;;;;;;;9.63;4.85;;;;;;;13.11;100.00;101087.91;4955718;28;20058;-80
2023/08/09 02:46:19;;;;;;;10.27;4.90;;;;;;;13.10;100.00;101081.53;4971890;28;20054;-80
2023/08/09 02:48:46;;;;;;;10.70;4.68;;;;;;;13.12;100.00;101083.88;4972642;28;20109;-81
2023/08/09 02:51:14;;;;;;;9.27;4.60;;;;;;;13.08;100.00;101074.78;4972842;28;20055;-80
2023/08/09 02:54:02;;;;;;;15.05;5.18;;;;;;;13.10;100.00;101087.09;4974291;28;20082;-81
2023/08/09 02:56:29;;;;;;;10.90;4.78;;;;;;;13.11;100.00;101077.53;4972922;28;20051;-79
2023/08/09 02:58:57;;;;;;;9.45;4.57;;;;;;;13.03;100.00;101069.72;4972980;28;20074;-80
2023/08/09 03:01:25;;;;;;;14.60;5.53;;;;;;;13.07;100.00;101085.19;4971255;28;20077;-78
2023/08/09 03:03:54;;;;;;;11.85;5.60;;;;;;;13.04;100.00;101080.47;4979226;28;20142;-79
2023/08/09 03:06:22;;;;;;;13.43;5.15;;;;;;;13.02;100.00;101091.25;4971831;28;20063;-77
2023/08/09 03:08:49;;;;;;;19.27;9.13;;;;;;;13.02;100.00;101101.59;4979050;28;20483;-81
2023/08/09 03:11:18;;;;;;;21.77;10.07;;;;;;;13.06;100.00;101105.94;4973478;28;20059;-79
2023/08/09 03:13:44;;;;;;;19.38;8.90;;;;;;;13.06;100.00;101119.09;4956025;28;20051;-80
2023/08/09 03:16:12;;;;;;;19.52;9.52;;;;;;;13.04;100.00;101113.94;4974061;28;20051;-80
2023/08/09 03:18:40;;;;;;;23.40;10.00;;;;;;;13.09;100.00;101118.22;4973638;28;20047;-79
2023/08/09 03:21:07;;;;;;;20.80;9.30;;;;;;;13.11;100.00;101118.59;4956094;28;20046;-79
2023/08/09 03:23:35;;;;;;;16.83;7.93;;;;;;;13.15;100.00;101125.72;4973200;28;20059;-79
2023/08/09 03:26:02;;;;;;;18.35;7.80;;;;;;;13.18;100.00;101121.28;4972470;28;20463;-78
2023/08/09 03:28:29;;;;;;;19.42;8.93;;;;;;;13.20;100.00;101118.84;4973094;28;20050;-80
2023/08/09 03:30:56;;;;;;;19.25;8.52;;;;;;;13.21;100.00;101117.63;4972576;28;20106;-80
2023/08/09 03:33:23;;;;;;;20.38;8.60;;;;;;;13.20;100.00;101116.84;4976195;28;20094;-81
2023/08/09 03:35:50;;;;;;;20.75;10.60;;;;;;;13.16;100.00;101106.97;4964610;28;20051;-80
2023/08/09 03:38:17;;;;;;;17.10;7.75;;;;;;;13.18;100.00;101110.09;4978082;28;20055;-80
2023/08/09 03:40:44;;;;;;;17.50;7.88;;;;;;;13.22;100.00;101125.59;4975741;28;20088;-81
2023/08/09 03:43:10;;;;;;;18.52;8.75;;;;;;;13.25;100.00;101121.94;4977326;28;20050;-80
2023/08/09 03:45:37;;;;;;;19.20;8.98;;;;;;;13.27;100.00;101124.31;4977503;28;20474;-81
2023/08/09 03:48:04;;;;;;;18.02;7.47;;;;;;;13.15;100.00;101128.50;4983857;28;20058;-81
2023/08/09 03:50:31;;;;;;;15.63;7.53;;;;;;;13.12;100.00;101131.34;4977444;28;20058;-80
2023/08/09 03:52:57;;;;;;;24.13;9.27;;;;;;;13.18;100.00;101132.44;4975861;28;20042;-78
2023/08/09 03:55:24;;;;;;;15.00;7.30;;;;;;;13.17;100.00;101144.84;4977514;28;20079;-84
2023/08/09 03:57:51;;;;;;;15.60;6.40;;;;;;;13.17;100.00;101136.47;4980593;28;20102;-81
2023/08/09 04:00:17;;;;;;;17.05;8.15;;;;;;;13.15;100.00;101136.09;4980461;28;20055;-78
2023/08/09 04:02:45;;;;;;;16.20;8.30;;;;;;;13.12;100.00;101145.31;4973458;28;20062;-80
2023/08/09 04:05:13;;;;;;;17.00;8.38;;;;;;;13.05;100.00;101140.66;4970826;28;20571;-78
2023/08/09 04:07:39;;;;;;;18.70;8.10;;;;;;;13.10;100.00;101153.34;4974029;28;20479;-78
2023/08/09 04:10:06;;;;;;;19.25;9.30;;;;;;;13.12;100.00;101160.06;4975082;28;20055;-80
2023/08/09 04:12:33;;;;;;;20.52;9.13;;;;;;;13.10;100.00;101170.09;4976326;28;20054;-80
2023/08/09 04:15:00;;;;;;;18.25;8.18;;;;;;;13.05;100.00;101171.34;4975845;28;20051;-80
2023/08/09 04:17:26;;;;;;;19.02;9.40;;;;;;;13.04;100.00;101174.56;4975961;28;20102;-83
2023/08/09 04:19:53;;;;;;;23.95;10.90;;;;;;;13.03;100.00;101176.56;4974078;28;20046;-81
2023/08/09 04:22:20;;;;;;;23.98;9.80;;;;;;;12.99;100.00;101175.06;4975727;28;20074;-79
2023/08/09 04:24:46;;;;;;;19.88;8.73;;;;;;;13.01;100.00;101176.19;4975490;28;20081;-79
2023/08/09 04:27:13;;;;;;;15.82;7.93;;;;;;;13.01;100.00;101172.63;4975409;28;20074;-83
2023/08/09 04:29:39;;;;;;;19.25;8.88;;;;;;;13.02;100.00;101171.38;4973532;28;20094;-79
2023/08/09 04:32:07;;;;;;;32.58;16.92;;;;;;;13.05;100.00;101174.13;4975420;28;20081;-81
2023/08/09 04:34:33;;;;;;;38.38;18.48;;;;;;;13.07;100.00;101176.50;4972820;28;20058;-80
2023/08/09 04:37:03;;;;;;;42.63;19.23;;;;;;;13.14;100.00;101191.16;4957699;28;20051;-81
2023/08/09 04:39:31;;;;;;;37.78;18.77;;;;;;;13.14;100.00;101185.56;4973188;28;20113;-78
2023/08/09 04:41:58;;;;;;;39.83;18.17;;;;;;;13.12;100.00;101189.97;4955782;28;20153;-81
2023/08/09 04:44:25;;;;;;;36.97;18.00;;;;;;;13.04;100.00;101180.13;4971830;28;20046;-79
2023/08/09 04:46:52;;;;;;;46.40;20.40;;;;;;;13.11;100.00;101183.63;4971887;28;20063;-79
2023/08/09 04:49:18;;;;;;;39.53;19.23;;;;;;;13.09;100.00;101179.66;4970910;28;20116;-79
2023/08/09 04:51:45;;;;;;;42.17;18.13;;;;;;;13.08;100.00;101178.06;4972091;28;20086;-79
2023/08/09 04:54:11;;;;;;;42.30;19.58;;;;;;;13.16;100.00;101190.72;4979137;28;20086;-80
2023/08/09 04:56:38;;;;;;;42.67;18.63;;;;;;;13.17;100.00;101181.94;4970226;28;20061;-80
2023/08/09 04:59:04;;;;;;;39.22;18.08;;;;;;;13.28;100.00;101190.09;4957420;28;20093;-80
2023/08/09 05:01:31;;;;;;;35.35;15.98;;;;;;;13.31;100.00;101190.06;4973697;28;20101;-80
2023/08/09 05:03:58;;;;;;;38.33;18.40;;;;;;;13.34;100.00;101191.22;4970835;28;20145;-80
2023/08/09 05:06:24;;;;;;;32.28;14.68;;;;;;;13.34;100.00;101192.00;4973522;28;20042;-80
2023/08/09 05:08:51;;;;;;;34.17;16.75;;;;;;;13.37;100.00;101190.38;4967800;28;20057;-81
2023/08/09 05:11:17;;;;;;;38.50;18.40;;;;;;;13.38;100.00;101192.72;4974366;28;20051;-81
2023/08/09 05:13:44;;;;;;;33.75;17.45;;;;;;;13.36;100.00;101197.94;4972007;28;20066;-85
2023/08/09 05:16:11;;;;;;;39.72;17.00;;;;;;;13.34;100.00;101188.41;4971449;28;20109;-82
2023/08/09 05:18:38;;;;;;;32.85;16.35;;;;;;;13.40;100.00;101195.88;4975632;28;20541;-82
2023/08/09 05:21:05;;;;;;;33.38;16.02;;;;;;;13.39;100.00;101201.88;4974434;28;20078;-80
2023/08/09 05:23:32;;;;;;;39.45;17.92;;;;;;;13.42;100.00;101209.41;4967460;28;20055;-80
2023/08/09 05:25:58;;;;;;;37.28;18.80;;;;;;;13.48;100.00;101211.34;4968803;28;20058;-83
2023/08/09 05:28:25;;;;;;;41.17;19.02;;;;;;;13.53;100.00;101215.63;4975301;28;20050;-81
2023/08/09 05:30:52;;;;;;;36.03;17.17;;;;;;;13.56;100.00;101214.78;4974750;28;20051;-77
2023/08/09 05:33:18;;;;;;;34.33;17.83;;;;;;;13.68;100.00;101219.75;4972621;28;20109;-84
2023/08/09 05:35:45;;;;;;;36.35;17.27;;;;;;;13.63;100.00;101206.28;4974444;28;20065;-80
2023/08/09 05:38:11;;;;;;;34.30;17.15;;;;;;;13.73;100.00;101213.66;4957456;28;20051;-81
2023/08/09 05:40:38;;;;;;;32.63;17.13;;;;;;;13.73;100.00;101219.25;4975957;28;20073;-84
2023/08/09 05:43:04;;;;;;;32.50;16.45;;;;;;;13.72;100.00;101217.69;4975904;28;20058;-81
2023/08/09 05:45:31;;;;;;;33.83;16.58;;;;;;;13.74;100.00;101224.41;4972305;28;20055;-77
2023/08/09 05:47:57;;;;;;;31.27;15.23;;;;;;;13.57;100.00;101227.56;4966180;28;20047;-78
2023/08/09 05:50:24;;;;;;;34.40;17.85;;;;;;;13.60;100.00;101226.72;4969918;28;20050;-76
2023/08/09 05:52:51;;;;;;;38.65;18.23;;;;;;;13.62;100.00;101229.84;4974007;28;20085;-78
2023/08/09 05:55:18;;;;;;;44.40;21.23;;;;;;;13.64;100.00;101236.56;4969497;28;20554;-78
2023/08/09 05:57:47;;;;;;;37.70;19.38;;;;;;;13.67;100.00;101243.34;4969924;28;20047;-79
2023/08/09 06:00:15;;;;;;;42.42;20.67;;;;;;;13.68;100.00;101245.72;4969261;28;20084;-78
2023/08/09 06:02:44;;;;;;;33.72;17.38;;;;;;;13.63;100.00;101245.38;4969144;28;20121;-78
2023/08/09 06:05:18;;;;;;;34.40;16.65;;;;;;;13.37;100.00;101246.22;4968208;28;20054;-79
2023/08/09 06:07:45;;;;;;;35.42;18.67;;;;;;;13.44;100.00;101237.75;4970582;28;20063;-77
2023/08/09 06:10:12;;;;;;;32.22;18.15;;;;;;;13.48;100.00;101247.66;4957308;28;20465;-77
2023/08/09 06:12:38;;;;;;;32.55;16.58;;;;;;;13.53;100.00;101263.91;4961967;28;20561;-78
2023/08/09 06:15:05;;;;;;;34.10;18.73;;;;;;;13.56;100.00;101265.06;4969232;28;20050;-74
2023/08/09 06:17:32;;;;;;;30.17;16.48;;;;;;;13.58;100.00;101257.06;4970084;28;20058;-75
2023/08/09 06:19:59;;;;;;;37.28;19.50;;;;;;;13.67;100.00;101265.69;4969954;28;20509;-77
2023/08/09 06:22:25;;;;;;;38.33;19.50;;;;;;;13.57;100.00;101261.06;4970066;28;20054;-77
2023/08/09 06:24:52;;;;;;;38.00;18.55;;;;;;;13.48;100.00;101266.41;4967215;28;20466;-78
2023/08/09 06:27:19;;;;;;;37.13;18.98;;;;;;;13.49;100.00;101270.78;4970779;28;20051;-77
2023/08/09 06:29:46;;;;;;;34.40;16.15;;;;;;;13.42;100.00;101260.50;4971210;28;20055;-76
2023/08/09 06:32:13;;;;;;;34.67;18.98;;;;;;;13.38;100.00;101270.94;4972481;28;20047;-77
2023/08/09 06:34:39;;;;;;;32.83;16.98;;;;;;;13.29;100.00;101267.06;4968722;28;20082;-73
2023/08/09 06:37:06;;;;;;;36.13;18.08;;;;;;;13.34;100.00;101269.41;4970663;28;20090;-76
2023/08/09 06:39:35;;;;;;;30.70;15.05;;;;;;;13.27;100.00;101266.72;4962327;28;20138;-78
2023/08/09 06:42:02;;;;;;;29.90;16.05;;;;;;;13.45;100.00;101270.03;4964762;28;20055;-76
2023/08/09 06:44:32;;;;;;;26.55;11.57;;;;;;;13.49;100.00;101287.53;4965738;28;20054;-76
2023/08/09 06:46:59;;;;;;;34.78;17.42;;;;;;;13.40;100.00;101284.47;4968562;28;20534;-76
2023/08/09 06:49:27;;;;;;;37.15;20.35;;;;;;;13.65;100.00;101287.66;4968708;28;20529;-77
2023/08/09 06:51:55;;;;;;;42.30;19.77;;;;;;;13.55;100.00;101285.84;4969386;28;20098;-77
2023/08/09 06:54:21;;;;;;;39.78;21.08;;;;;;;13.61;100.00;101279.34;4973686;28;20137;-75
2023/08/09 06:56:53;;;;;;;44.28;23.02;;;;;;;13.60;100.00;101272.19;4962141;28;20567;-76
2023/08/09 06:59:20;;;;;;;36.73;18.73;;;;;;;13.49;100.00;101271.56;4968084;28;20050;-76
2023/08/09 07:01:48;;;;;;;40.85;22.85;;;;;;;13.67;100.00;101268.50;4972936;28;20582;-77
2023/08/09 07:04:16;;;;;;;33.00;18.08;;;;;;;13.54;100.00;101273.09;4973026;28;20105;-77
2023/08/09 07:06:43;;;;;;;36.55;19.70;;;;;;;13.75;100.00;101258.75;4973067;28;20872;-77
2023/08/09 07:09:11;;;;;;;39.20;20.58;;;;;;;13.78;100.00;101264.25;4972864;28;20525;-76
2023/08/09 07:11:37;;;;;;;43.28;23.92;;;;;;;14.04;100.00;101290.59;4973694;28;20047;-77
2023/08/09 07:14:05;;;;;;;47.45;21.65;;;;;;;14.00;100.00;101282.25;4973363;28;20060;-74
2023/08/09 07:16:31;;;;;;;46.50;23.58;;;;;;;14.08;100.00;101275.28;4973450;28;20054;-78
2023/08/09 07:18:58;;;;;;;43.10;22.58;;;;;;;14.25;100.00;101290.94;4970347;28;20057;-77
2023/08/09 07:21:26;;;;;;;36.08;19.98;;;;;;;14.46;100.00;101281.38;4972515;28;20062;-76
2023/08/09 07:23:52;;;;;;;31.90;17.90;;;;;;;14.51;100.00;101283.66;4965405;28;20105;-77
2023/08/09 07:26:23;;;;;;;31.80;17.58;;;;;;;14.54;100.00;101280.81;4971114;28;20059;-78
2023/08/09 07:28:50;;;;;;;35.25;18.58;;;;;;;14.64;100.00;101288.19;4955384;28;20043;-77
2023/08/09 07:31:21;;;;;;;35.90;20.70;;;;;;;14.43;100.00;101283.03;4972876;28;20098;-76
2023/08/09 07:33:48;;;;;;;34.70;20.67;;;;;;;14.51;100.00;101267.69;4971189;28;20066;-77
2023/08/09 07:36:15;;;;;;;35.60;19.67;;;;;;;14.52;100.00;101269.25;4973339;28;20050;-74
2023/08/09 07:38:42;;;;;;;28.67;15.30;;;;;;;14.48;100.00;101265.75;4972347;28;20116;-77
2023/08/09 07:41:10;;;;;;;26.42;13.98;;;;;;;14.37;100.00;101276.34;4973464;28;20105;-76
2023/08/09 07:43:37;;;;;;;28.35;16.92;;;;;;;14.52;100.00;101274.06;4973748;28;20937;-77
2023/08/09 07:46:05;;;;;;;21.75;12.90;;;;;;;14.50;100.00;101279.31;4950289;28;20047;-76
2023/08/09 07:48:33;;;;;;;28.77;13.73;;;;;;;14.53;100.00;101276.44;4973248;28;20047;-76
2023/08/09 07:51:00;;;;;;;27.73;13.38;;;;;;;14.41;100.00;101270.66;4972840;28;20117;-77
2023/08/09 07:53:27;;;;;;;29.77;17.88;;;;;;;14.60;100.00;101279.09;4971757;28;20650;-77
2023/08/09 07:55:53;;;;;;;28.85;16.20;;;;;;;14.70;100.00;101277.28;4973029;28;20152;-77
2023/08/09 07:58:20;;;;;;;26.23;13.45;;;;;;;14.58;100.00;101275.13;4969802;28;20054;-77
2023/08/09 08:00:47;;;;;;;28.65;16.35;;;;;;;14.61;100.00;101274.25;4964180;28;20055;-76
2023/08/09 08:03:17;;;;;;;24.27;14.48;;;;;;;14.65;100.00;101275.78;4972322;28;20142;-76
2023/08/09 08:05:44;;;;;;;27.20;16.42;;;;;;;14.74;100.00;101283.59;4972209;28;20105;-76
2023/08/09 08:08:14;;;;;;;26.85;16.83;;;;;;;14.98;100.00;101281.47;4972402;28;20468;-77
2023/08/09 08:10:41;;;;;;;24.58;14.77;;;;;;;15.15;100.00;101297.09;4972237;28;20050;-74
2023/08/09 08:13:08;;;;;;;21.88;8.73;;;;;;;14.81;100.00;101291.81;4966041;28;20577;-77
2023/08/09 08:15:36;;;;;;;24.30;13.85;;;;;;;15.02;100.00;101284.97;4969557;28;20054;-76
2023/08/09 08:18:08;;;;;;;19.45;12.27;;;;;;;15.02;100.00;101272.56;4976922;28;20134;-74
2023/08/09 08:20:34;;;;;;;17.88;9.25;;;;;;;14.95;100.00;101286.72;4969364;28;20082;-77
2023/08/09 08:23:01;;;;;;;22.02;11.18;;;;;;;14.90;100.00;101281.63;4970588;28;20133;-79
2023/08/09 08:25:27;;;;;;;21.77;11.32;;;;;;;15.27;100.00;101282.38;4969263;28;20482;-79
2023/08/09 08:27:54;;;;;;;20.48;10.18;;;;;;;15.24;100.00;101284.06;4969851;28;20053;-78
2023/08/09 08:30:21;;;;;;;20.52;10.63;;;;;;;15.34;100.00;101277.41;4972733;28;20487;-78
2023/08/09 08:32:49;;;;;;;17.88;8.82;;;;;;;15.16;100.00;101276.25;4972437;28;20082;-78
2023/08/09 08:35:24;;;;;;;20.50;10.43;;;;;;;15.18;100.00;101277.38;4970741;28;20054;-78
2023/08/09 08:37:53;;;;;;;19.13;11.25;;;;;;;15.39;100.00;101278.94;4969826;28;20057;-79
2023/08/09 08:40:21;;;;;;;19.10;10.73;;;;;;;15.48;100.00;101265.88;4953267;28;20573;-78
2023/08/09 08:42:49;;;;;;;18.40;10.48;;;;;;;15.62;100.00;101273.13;4972851;28;20074;-76
2023/08/09 08:45:19;;;;;;;21.20;11.52;;;;;;;15.91;100.00;101266.38;4957902;28;20997;-78
2023/08/09 08:47:47;;;;;;;20.42;12.43;;;;;;;16.21;100.00;101263.16;4968105;28;20081;-75
2023/08/09 08:50:16;;;;;;;23.38;12.82;;;;;;;16.55;100.00;101269.03;4967813;28;20146;-75
2023/08/09 08:52:45;;;;;;;23.15;13.32;;;;;;;16.80;100.00;101266.25;4967882;28;20057;-75
2023/08/09 08:55:13;;;;;;;17.67;9.05;;;;;;;16.71;100.00;101259.72;4970486;28;20113;-77
2023/08/09 08:57:41;;;;;;;12.43;5.47;;;;;;;16.42;100.00;101259.78;4970448;28;20054;-76
2023/08/09 09:00:15;;;;;;;15.30;7.25;;;;;;;16.20;100.00;101263.59;4971788;28;20171;-76
2023/08/09 09:02:54;;;;;;;16.25;8.40;;;;;;;16.42;100.00;101276.59;4965222;28;20051;-78
2023/08/09 09:05:21;;;;;;;15.43;7.40;;;;;;;16.52;100.00;101277.53;4969882;28;20072;-76
2023/08/09 09:07:50;;;;;;;14.32;6.88;;;;;;;16.66;100.00;101275.09;4968061;28;20597;-78
2023/08/09 09:10:19;;;;;;;13.88;6.00;;;;;;;16.44;100.00;101271.31;4969622;28;20070;-77
2023/08/09 09:12:49;;;;;;;14.65;6.70;;;;;;;16.31;100.00;101278.91;4967370;28;20136;-77
2023/08/09 09:15:17;;;;;;;12.02;5.15;;;;;;;16.25;100.00;101279.88;4970968;28;20056;-80
2023/08/09 09:17:45;;;;;;;14.20;6.75;;;;;;;16.52;100.00;101275.50;4966219;28;20406;-79
2023/08/09 09:20:18;;;;;;;12.45;4.68;;;;;;;16.57;100.00;101279.78;4971416;28;20121;-77
2023/08/09 09:22:44;;;;;;;14.95;5.72;;;;;;;16.71;100.00;101266.13;4973025;28;20391;-79
2023/08/09 09:25:11;;;;;;;13.63;5.90;;;;;;;16.96;100.00;101280.22;4970915;28;20113;-76
2023/08/09 09:27:40;;;;;;;14.02;5.47;;;;;;;16.99;100.00;101276.50;4975369;28;20055;-79
2023/08/09 09:30:13;;;;;;;18.23;6.65;;;;;;;17.00;100.00;101266.84;4970896;28;20506;-78
2023/08/09 09:32:54;;;;;;;14.68;6.03;;;;;;;17.14;100.00;101272.03;4966601;28;20051;-79
2023/08/09 09:35:23;;;;;;;17.13;6.25;;;;;;;17.07;100.00;101265.81;4968294;28;20130;-78
2023/08/09 09:37:51;;;;;;;15.18;6.03;;;;;;;17.24;100.00;101273.72;4971475;28;20066;-78
2023/08/09 09:40:31;;;;;;;12.63;5.38;;;;;;;17.26;100.00;101276.09;4972254;28;20648;-76
2023/08/09 09:43:04;;;;;;;16.67;5.50;;;;;;;17.60;100.00;101286.63;4962483;28;20050;-75
2023/08/09 09:45:31;;;;;;;14.23;5.63;;;;;;;17.72;100.00;101285.81;4956296;28;20165;-77
2023/08/09 09:48:02;;;;;;;5.95;2.67;;;;;;;17.47;100.00;101274.59;4970534;28;20078;-78
2023/08/09 09:50:34;;;;;;;11.68;3.47;;;;;;;17.31;100.00;101281.13;4972289;28;20050;-78
2023/08/09 09:53:02;;;;;;;17.10;6.53;;;;;;;17.68;100.00;101276.72;4968704;28;20058;-78
2023/08/09 09:55:30;;;;;;;19.70;8.23;;;;;;;18.07;100.00;101285.41;4964952;28;20050;-77
2023/08/09 09:57:57;;;;;;;17.00;7.20;;;;;;;18.34;100.00;101293.28;4967059;28;20076;-77
2023/08/09 10:00:29;;;;;;;15.57;6.35;;;;;;;17.94;100.00;101289.50;4962420;28;20502;-77
2023/08/09 10:02:59;;;;;;;22.02;9.02;;;;;;;18.09;100.00;101288.53;4967947;28;20521;-78
2023/08/09 10:05:35;;;;;;;19.90;9.73;;;;;;;18.28;100.00;101303.56;4968517;28;20046;-78
2023/08/09 10:08:08;;;;;;;22.17;8.93;;;;;;;18.33;100.00;101298.13;4958460;28;20053;-78
2023/08/09 10:10:43;;;;;;;20.30;9.13;;;;;;;18.28;100.00;101300.75;4957992;28;20057;-77
2023/08/09 10:13:14;;;;;;;18.63;9.18;;;;;;;18.62;100.00;101309.13;4965925;28;20085;-78
2023/08/09 10:15:46;;;;;;;21.83;10.65;;;;;;;18.79;100.00;101310.53;4968436;28;20598;-78
2023/08/09 10:18:20;;;;;;;20.75;12.15;;;;;;;18.83;100.00;101309.16;4951902;28;20082;-77
2023/08/09 10:20:51;;;;;;;23.75;12.10;;;;;;;18.97;100.00;101308.59;4967829;28;20151;-78
2023/08/09 10:23:23;;;;;;;23.67;12.68;;;;;;;19.14;100.00;101317.63;4966786;28;20114;-77
2023/08/09 10:25:51;;;;;;;24.15;14.20;;;;;;;19.05;100.00;101320.41;4968170;28;20049;-78
2023/08/09 10:28:19;;;;;;;25.55;15.27;;;;;;;19.27;100.00;101315.47;4971533;28;20502;-77
2023/08/09 10:30:54;;;;;;;28.63;15.73;;;;;;;19.51;100.00;101313.75;4968941;28;20129;-78
2023/08/09 10:33:23;;;;;;;29.30;16.58;;;;;;;19.45;100.00;101318.41;4968340;28;20135;-77
2023/08/09 10:35:52;;;;;;;28.27;11.95;;;;;;;19.05;100.00;101311.94;4945976;28;20061;-79
2023/08/09 10:38:32;;;;;;;29.08;13.88;;;;;;;19.26;100.00;101311.09;4977169;28;20047;-78
2023/08/09 10:41:12;;;;;;;29.88;17.15;;;;;;;19.27;100.00;101315.47;4975819;28;20062;-78
2023/08/09 10:43:39;;;;;;;32.03;19.92;;;;;;;19.38;100.00;101315.88;4967891;28;20053;-77
2023/08/09 10:46:24;;;;;;;36.35;20.08;;;;;;;19.42;100.00;101305.22;4974902;28;20046;-79
2023/08/09 10:48:52;;;;;;;32.45;19.05;;;;;;;19.68;100.00;101306.59;4969414;28;20047;-78
2023/08/09 10:51:23;;;;;;;40.10;19.90;;;;;;;19.74;100.00;101296.25;4974908;28;20062;-77
2023/08/09 10:53:59;;;;;;;30.90;19.27;;;;;;;19.67;100.00;101293.72;4975279;28;20110;-80
2023/08/09 10:56:41;;;;;;;29.38;18.40;;;;;;;19.38;100.00;101302.53;4973813;28;20854;-79
2023/08/09 10:59:19;;;;;;;30.88;18.98;;;;;;;19.57;100.00;101306.22;4968124;28;20118;-80
2023/08/09 11:01:47;;;;;;;31.15;17.85;;;;;;;19.67;100.00;101299.38;4975434;28;20137;-79
2023/08/09 11:04:14;;;;;;;30.60;18.08;;;;;;;19.17;100.00;101297.00;4954116;28;20102;-80
2023/08/09 11:06:46;;;;;;;22.63;9.70;;;;;;;19.05;100.00;101309.13;4974277;28;20062;-81
2023/08/09 11:09:14;;;;;;;30.13;17.77;;;;;;;19.04;100.00;101296.28;4965383;28;20038;-76
2023/08/09 11:11:42;;;;;;;10.43;4.70;;;;;;;18.94;100.00;101303.88;4975674;28;20042;-76